sensor_id;sensor_type;location;lat;lon;timestamp;P1;durP1;ratioP1;P2;durP2;ratioP2
76548;SDS011;65391;52.068;4.542;2023-04-03T00:00:28;2.4;;;1.1;;
76548;SDS011;65391;52.068;4.542;2023-04-03T00:02:53;2.2;;;1.2;;
76548;SDS011;65391;52.068;4.542;2023-04-03T00:05:18;2.2;;;1.2;;
76548;SDS011;65391;52.068;4.542;2023-04-03T00:07:43;2.2;;;1.2;;
76548;SDS011;65391;52.068;4.542;2023-04-03T00:10:09;2.2;;;1.2;;
76548;SDS011;65391;52.068;4.542;2023-04-03T00:12:33;2.2;;;1.2;;
76548;SDS011;65391;52.068;4.542;2023-04-03T00:14:58;5.1;;;1.1;;
76548;SDS011;65391;52.068;4.542;2023-04-03T00:17:23;5.1;;;1.1;;
76548;SDS011;65391;52.068;4.542;2023-04-03T00:19:49;5.1;;;1.1;;
76548;SDS011;65391;52.068;4.542;2023-04-03T00:22:13;5.1;;;1.1;;
76548;SDS011;65391;52.068;4.542;2023-04-03T00:24:38;3.6;;;1.4;;
76548;SDS011;65391;52.068;4.542;2023-04-03T00:27:03;3.6;;;1.4;;
76548;SDS011;65391;52.068;4.542;2023-04-03T00:29:28;3.6;;;1.4;;
76548;SDS011;65391;52.068;4.542;2023-04-03T00:31:53;3.6;;;1.4;;
76548;SDS011;65391;52.068;4.542;2023-04-03T00:34:18;3.2;;;1.2;;
76548;SDS011;65391;52.068;4.542;2023-04-03T00:36:43;3.2;;;1.2;;
76548;SDS011;65391;52.068;4.542;2023-04-03T00:39:08;3.2;;;1.2;;
76548;SDS011;65391;52.068;4.542;2023-04-03T00:41:33;3.2;;;1.2;;
76548;SDS011;65391;52.068;4.542;2023-04-03T00:43:58;2.3;;;1.1;;
76548;SDS011;65391;52.068;4.542;2023-04-03T00:46:23;2.3;;;1.1;;
76548;SDS011;65391;52.068;4.542;2023-04-03T00:48:48;2.3;;;1.1;;
76548;SDS011;65391;52.068;4.542;2023-04-03T00:51:14;2.3;;;1.1;;
76548;SDS011;65391;52.068;4.542;2023-04-03T00:53:40;6.3;;;1.2;;
76548;SDS011;65391;52.068;4.542;2023-04-03T00:56:05;6.3;;;1.2;;
76548;SDS011;65391;52.068;4.542;2023-04-03T00:58:31;6.3;;;1.2;;
76548;SDS011;65391;52.068;4.542;2023-04-03T01:00:54;6.3;;;1.2;;
76548;SDS011;65391;52.068;4.542;2023-04-03T01:03:18;3.4;;;1.5;;
76548;SDS011;65391;52.068;4.542;2023-04-03T01:05:43;3.4;;;1.5;;
76548;SDS011;65391;52.068;4.542;2023-04-03T01:08:08;3.4;;;1.5;;
76548;SDS011;65391;52.068;4.542;2023-04-03T01:10:33;3.4;;;1.5;;
76548;SDS011;65391;52.068;4.542;2023-04-03T01:12:58;3.4;;;1.3;;
76548;SDS011;65391;52.068;4.542;2023-04-03T01:15:24;3.4;;;1.3;;
76548;SDS011;65391;52.068;4.542;2023-04-03T01:17:49;3.4;;;1.3;;
76548;SDS011;65391;52.068;4.542;2023-04-03T01:22:39;3.4;;;1.3;;
76548;SDS011;65391;52.068;4.542;2023-04-03T01:25:03;3.5;;;1.3;;
76548;SDS011;65391;52.068;4.542;2023-04-03T01:27:28;3.5;;;1.3;;
76548;SDS011;65391;52.068;4.542;2023-04-03T01:29:53;3.5;;;1.3;;
76548;SDS011;65391;52.068;4.542;2023-04-03T01:32:18;3.5;;;1.3;;
76548;SDS011;65391;52.068;4.542;2023-04-03T01:34:43;2.1;;;1.2;;
76548;SDS011;65391;52.068;4.542;2023-04-03T01:37:08;2.1;;;1.2;;
76548;SDS011;65391;52.068;4.542;2023-04-03T01:39:33;2.1;;;1.2;;
76548;SDS011;65391;52.068;4.542;2023-04-03T01:41:58;2.1;;;1.2;;
76548;SDS011;65391;52.068;4.542;2023-04-03T01:44:23;3;;;1.3;;
76548;SDS011;65391;52.068;4.542;2023-04-03T01:46:48;3;;;1.3;;
76548;SDS011;65391;52.068;4.542;2023-04-03T01:49:13;3;;;1.3;;
76548;SDS011;65391;52.068;4.542;2023-04-03T01:51:38;3;;;1.3;;
76548;SDS011;65391;52.068;4.542;2023-04-03T01:54:03;4;;;1.2;;
76548;SDS011;65391;52.068;4.542;2023-04-03T01:56:28;4;;;1.2;;
76548;SDS011;65391;52.068;4.542;2023-04-03T01:58:53;4;;;1.2;;
76548;SDS011;65391;52.068;4.542;2023-04-03T02:01:18;4;;;1.2;;
76548;SDS011;65391;52.068;4.542;2023-04-03T02:03:43;4.9;;;1.2;;
76548;SDS011;65391;52.068;4.542;2023-04-03T02:06:08;4.9;;;1.2;;
76548;SDS011;65391;52.068;4.542;2023-04-03T02:08:33;4.9;;;1.2;;
76548;SDS011;65391;52.068;4.542;2023-04-03T02:10:58;4.9;;;1.2;;
76548;SDS011;65391;52.068;4.542;2023-04-03T02:13:23;2.7;;;1.3;;
76548;SDS011;65391;52.068;4.542;2023-04-03T02:15:48;2.7;;;1.3;;
76548;SDS011;65391;52.068;4.542;2023-04-03T02:18:13;2.7;;;1.3;;
76548;SDS011;65391;52.068;4.542;2023-04-03T02:20:38;2.7;;;1.3;;
76548;SDS011;65391;52.068;4.542;2023-04-03T02:23:03;4.6;;;1.3;;
76548;SDS011;65391;52.068;4.542;2023-04-03T02:25:29;4.6;;;1.3;;
76548;SDS011;65391;52.068;4.542;2023-04-03T02:27:53;4.6;;;1.3;;
76548;SDS011;65391;52.068;4.542;2023-04-03T02:30:18;4.6;;;1.3;;
76548;SDS011;65391;52.068;4.542;2023-04-03T02:32:43;4.6;;;1.3;;
76548;SDS011;65391;52.068;4.542;2023-04-03T02:35:08;2.8;;;1.3;;
76548;SDS011;65391;52.068;4.542;2023-04-03T02:37:33;2.8;;;1.3;;
76548;SDS011;65391;52.068;4.542;2023-04-03T02:39:58;2.8;;;1.3;;
76548;SDS011;65391;52.068;4.542;2023-04-03T02:42:23;2.8;;;1.3;;
76548;SDS011;65391;52.068;4.542;2023-04-03T02:44:48;2.5;;;1.4;;
76548;SDS011;65391;52.068;4.542;2023-04-03T02:47:13;2.5;;;1.4;;
76548;SDS011;65391;52.068;4.542;2023-04-03T02:49:38;2.5;;;1.4;;
76548;SDS011;65391;52.068;4.542;2023-04-03T02:52:03;2.5;;;1.4;;
76548;SDS011;65391;52.068;4.542;2023-04-03T02:54:28;4.6;;;1.5;;
76548;SDS011;65391;52.068;4.542;2023-04-03T02:56:53;4.6;;;1.5;;
76548;SDS011;65391;52.068;4.542;2023-04-03T02:59:18;4.6;;;1.5;;
76548;SDS011;65391;52.068;4.542;2023-04-03T03:01:43;4.6;;;1.5;;
76548;SDS011;65391;52.068;4.542;2023-04-03T03:04:08;3.1;;;1.5;;
76548;SDS011;65391;52.068;4.542;2023-04-03T03:06:33;3.1;;;1.5;;
76548;SDS011;65391;52.068;4.542;2023-04-03T03:08:58;3.1;;;1.5;;
76548;SDS011;65391;52.068;4.542;2023-04-03T03:11:23;3.1;;;1.5;;
76548;SDS011;65391;52.068;4.542;2023-04-03T03:13:48;3.7;;;1.4;;
76548;SDS011;65391;52.068;4.542;2023-04-03T03:16:13;3.7;;;1.4;;
76548;SDS011;65391;52.068;4.542;2023-04-03T03:18:38;3.7;;;1.4;;
76548;SDS011;65391;52.068;4.542;2023-04-03T03:21:04;3.7;;;1.4;;
76548;SDS011;65391;52.068;4.542;2023-04-03T03:23:29;3.9;;;1.4;;
76548;SDS011;65391;52.068;4.542;2023-04-03T03:25:54;3.9;;;1.4;;
76548;SDS011;65391;52.068;4.542;2023-04-03T03:28:18;3.9;;;1.4;;
76548;SDS011;65391;52.068;4.542;2023-04-03T03:30:43;3.9;;;1.4;;
76548;SDS011;65391;52.068;4.542;2023-04-03T03:33:08;7;;;1.5;;
76548;SDS011;65391;52.068;4.542;2023-04-03T03:35:33;7;;;1.5;;
76548;SDS011;65391;52.068;4.542;2023-04-03T03:37:58;7;;;1.5;;
76548;SDS011;65391;52.068;4.542;2023-04-03T03:40:23;7;;;1.5;;
76548;SDS011;65391;52.068;4.542;2023-04-03T03:42:48;7;;;1.5;;
76548;SDS011;65391;52.068;4.542;2023-04-03T03:45:14;3.6;;;1.5;;
76548;SDS011;65391;52.068;4.542;2023-04-03T03:47:38;3.6;;;1.5;;
76548;SDS011;65391;52.068;4.542;2023-04-03T03:50:04;3.6;;;1.5;;
76548;SDS011;65391;52.068;4.542;2023-04-03T03:52:29;3.6;;;1.5;;
76548;SDS011;65391;52.068;4.542;2023-04-03T03:54:53;4.6;;;1.7;;
76548;SDS011;65391;52.068;4.542;2023-04-03T03:57:18;4.6;;;1.7;;
76548;SDS011;65391;52.068;4.542;2023-04-03T03:59:43;4.6;;;1.7;;
76548;SDS011;65391;52.068;4.542;2023-04-03T04:02:08;4.6;;;1.7;;
76548;SDS011;65391;52.068;4.542;2023-04-03T04:04:34;3.1;;;1.6;;
76548;SDS011;65391;52.068;4.542;2023-04-03T04:06:58;3.1;;;1.6;;
76548;SDS011;65391;52.068;4.542;2023-04-03T04:09:23;3.1;;;1.6;;
76548;SDS011;65391;52.068;4.542;2023-04-03T04:11:48;3.1;;;1.6;;
76548;SDS011;65391;52.068;4.542;2023-04-03T04:14:13;5.1;;;2.1;;
76548;SDS011;65391;52.068;4.542;2023-04-03T04:16:38;5.1;;;2.1;;
76548;SDS011;65391;52.068;4.542;2023-04-03T04:19:03;5.1;;;2.1;;
76548;SDS011;65391;52.068;4.542;2023-04-03T04:21:28;5.1;;;2.1;;
76548;SDS011;65391;52.068;4.542;2023-04-03T04:23:53;7.2;;;1.7;;
76548;SDS011;65391;52.068;4.542;2023-04-03T04:26:18;7.2;;;1.7;;
76548;SDS011;65391;52.068;4.542;2023-04-03T04:28:43;7.2;;;1.7;;
76548;SDS011;65391;52.068;4.542;2023-04-03T04:31:08;7.2;;;1.7;;
76548;SDS011;65391;52.068;4.542;2023-04-03T04:33:33;3.9;;;1.7;;
76548;SDS011;65391;52.068;4.542;2023-04-03T04:35:58;3.9;;;1.7;;
76548;SDS011;65391;52.068;4.542;2023-04-03T04:38:23;3.9;;;1.7;;
76548;SDS011;65391;52.068;4.542;2023-04-03T04:40:48;3.9;;;1.7;;
76548;SDS011;65391;52.068;4.542;2023-04-03T04:43:13;5.7;;;1.4;;
76548;SDS011;65391;52.068;4.542;2023-04-03T04:45:38;5.7;;;1.4;;
76548;SDS011;65391;52.068;4.542;2023-04-03T04:48:04;5.7;;;1.4;;
76548;SDS011;65391;52.068;4.542;2023-04-03T04:50:28;5.7;;;1.4;;
76548;SDS011;65391;52.068;4.542;2023-04-03T04:52:53;5.7;;;1.4;;
76548;SDS011;65391;52.068;4.542;2023-04-03T04:55:18;4.2;;;1.8;;
76548;SDS011;65391;52.068;4.542;2023-04-03T04:57:43;4.2;;;1.8;;
76548;SDS011;65391;52.068;4.542;2023-04-03T05:00:09;4.2;;;1.8;;
76548;SDS011;65391;52.068;4.542;2023-04-03T05:02:33;4.2;;;1.8;;
76548;SDS011;65391;52.068;4.542;2023-04-03T05:04:58;5.7;;;1.9;;
76548;SDS011;65391;52.068;4.542;2023-04-03T05:07:24;5.7;;;1.9;;
76548;SDS011;65391;52.068;4.542;2023-04-03T05:09:48;5.7;;;1.9;;
76548;SDS011;65391;52.068;4.542;2023-04-03T05:12:13;5.7;;;1.9;;
76548;SDS011;65391;52.068;4.542;2023-04-03T05:15:07;5.5;;;1.8;;
76548;SDS011;65391;52.068;4.542;2023-04-03T05:17:03;5.5;;;1.8;;
76548;SDS011;65391;52.068;4.542;2023-04-03T05:19:28;5.5;;;1.8;;
76548;SDS011;65391;52.068;4.542;2023-04-03T05:21:53;5.5;;;1.8;;
76548;SDS011;65391;52.068;4.542;2023-04-03T05:24:18;8.9;;;2.3;;
76548;SDS011;65391;52.068;4.542;2023-04-03T05:26:43;8.9;;;2.3;;
76548;SDS011;65391;52.068;4.542;2023-04-03T05:29:08;8.9;;;2.3;;
76548;SDS011;65391;52.068;4.542;2023-04-03T05:31:33;8.9;;;2.3;;
76548;SDS011;65391;52.068;4.542;2023-04-03T05:33:58;5.8;;;1.8;;
76548;SDS011;65391;52.068;4.542;2023-04-03T05:36:23;5.8;;;1.8;;
76548;SDS011;65391;52.068;4.542;2023-04-03T05:38:48;5.8;;;1.8;;
76548;SDS011;65391;52.068;4.542;2023-04-03T05:41:13;5.8;;;1.8;;
76548;SDS011;65391;52.068;4.542;2023-04-03T05:43:38;4.9;;;1.6;;
76548;SDS011;65391;52.068;4.542;2023-04-03T05:46:04;4.9;;;1.6;;
76548;SDS011;65391;52.068;4.542;2023-04-03T05:48:28;4.9;;;1.6;;
76548;SDS011;65391;52.068;4.542;2023-04-03T05:50:53;4.9;;;1.6;;
76548;SDS011;65391;52.068;4.542;2023-04-03T05:53:20;5.5;;;1.8;;
76548;SDS011;65391;52.068;4.542;2023-04-03T05:55:43;5.5;;;1.8;;
76548;SDS011;65391;52.068;4.542;2023-04-03T05:58:08;5.5;;;1.8;;
76548;SDS011;65391;52.068;4.542;2023-04-03T06:00:33;5.5;;;1.8;;
76548;SDS011;65391;52.068;4.542;2023-04-03T06:02:58;5.5;;;1.8;;
76548;SDS011;65391;52.068;4.542;2023-04-03T06:05:23;6.1;;;2.1;;
76548;SDS011;65391;52.068;4.542;2023-04-03T06:07:48;6.1;;;2.1;;
76548;SDS011;65391;52.068;4.542;2023-04-03T06:10:13;6.1;;;2.1;;
76548;SDS011;65391;52.068;4.542;2023-04-03T06:12:38;6.1;;;2.1;;
76548;SDS011;65391;52.068;4.542;2023-04-03T06:15:04;7;;;2.1;;
76548;SDS011;65391;52.068;4.542;2023-04-03T06:17:28;7;;;2.1;;
76548;SDS011;65391;52.068;4.542;2023-04-03T06:19:53;7;;;2.1;;
76548;SDS011;65391;52.068;4.542;2023-04-03T06:22:18;7;;;2.1;;
76548;SDS011;65391;52.068;4.542;2023-04-03T06:24:43;5.6;;;1.9;;
76548;SDS011;65391;52.068;4.542;2023-04-03T06:27:09;5.6;;;1.9;;
76548;SDS011;65391;52.068;4.542;2023-04-03T06:29:33;5.6;;;1.9;;
76548;SDS011;65391;52.068;4.542;2023-04-03T06:31:58;5.6;;;1.9;;
76548;SDS011;65391;52.068;4.542;2023-04-03T06:34:23;5.1;;;1.8;;
76548;SDS011;65391;52.068;4.542;2023-04-03T06:36:48;5.1;;;1.8;;
76548;SDS011;65391;52.068;4.542;2023-04-03T06:39:15;5.1;;;1.8;;
76548;SDS011;65391;52.068;4.542;2023-04-03T06:41:38;5.1;;;1.8;;
76548;SDS011;65391;52.068;4.542;2023-04-03T06:44:03;4.5;;;1.9;;
76548;SDS011;65391;52.068;4.542;2023-04-03T06:46:28;4.5;;;1.9;;
76548;SDS011;65391;52.068;4.542;2023-04-03T06:48:53;4.5;;;1.9;;
76548;SDS011;65391;52.068;4.542;2023-04-03T06:51:20;4.5;;;1.9;;
76548;SDS011;65391;52.068;4.542;2023-04-03T06:53:44;5;;;2.2;;
76548;SDS011;65391;52.068;4.542;2023-04-03T06:56:08;5;;;2.2;;
76548;SDS011;65391;52.068;4.542;2023-04-03T06:58:33;5;;;2.2;;
76548;SDS011;65391;52.068;4.542;2023-04-03T07:00:58;5;;;2.2;;
76548;SDS011;65391;52.068;4.542;2023-04-03T07:03:23;7.6;;;2.6;;
76548;SDS011;65391;52.068;4.542;2023-04-03T07:05:48;7.6;;;2.6;;
76548;SDS011;65391;52.068;4.542;2023-04-03T07:08:13;7.6;;;2.6;;
76548;SDS011;65391;52.068;4.542;2023-04-03T07:10:38;7.6;;;2.6;;
76548;SDS011;65391;52.068;4.542;2023-04-03T07:13:03;7.6;;;2.6;;
76548;SDS011;65391;52.068;4.542;2023-04-03T07:15:29;4.1;;;1.7;;
76548;SDS011;65391;52.068;4.542;2023-04-03T07:17:53;4.1;;;1.7;;
76548;SDS011;65391;52.068;4.542;2023-04-03T07:20:18;4.1;;;1.7;;
76548;SDS011;65391;52.068;4.542;2023-04-03T07:22:43;4.1;;;1.7;;
76548;SDS011;65391;52.068;4.542;2023-04-03T07:25:09;5.1;;;1.9;;
76548;SDS011;65391;52.068;4.542;2023-04-03T07:27:34;5.1;;;1.9;;
76548;SDS011;65391;52.068;4.542;2023-04-03T07:29:58;5.1;;;1.9;;
76548;SDS011;65391;52.068;4.542;2023-04-03T07:32:23;5.1;;;1.9;;
76548;SDS011;65391;52.068;4.542;2023-04-03T07:34:48;10.4;;;1.9;;
76548;SDS011;65391;52.068;4.542;2023-04-03T07:37:13;10.4;;;1.9;;
76548;SDS011;65391;52.068;4.542;2023-04-03T07:39:38;10.4;;;1.9;;
76548;SDS011;65391;52.068;4.542;2023-04-03T07:42:04;10.4;;;1.9;;
76548;SDS011;65391;52.068;4.542;2023-04-03T07:44:29;4.9;;;1.7;;
76548;SDS011;65391;52.068;4.542;2023-04-03T07:46:53;4.9;;;1.7;;
76548;SDS011;65391;52.068;4.542;2023-04-03T07:49:19;4.9;;;1.7;;
76548;SDS011;65391;52.068;4.542;2023-04-03T07:51:44;4.9;;;1.7;;
76548;SDS011;65391;52.068;4.542;2023-04-03T07:54:09;4.3;;;2;;
76548;SDS011;65391;52.068;4.542;2023-04-03T07:56:33;4.3;;;2;;
76548;SDS011;65391;52.068;4.542;2023-04-03T07:58:59;4.3;;;2;;
76548;SDS011;65391;52.068;4.542;2023-04-03T08:01:24;4.3;;;2;;
76548;SDS011;65391;52.068;4.542;2023-04-03T08:03:48;2.9;;;1.8;;
76548;SDS011;65391;52.068;4.542;2023-04-03T08:06:14;2.9;;;1.8;;
76548;SDS011;65391;52.068;4.542;2023-04-03T08:08:39;2.9;;;1.8;;
76548;SDS011;65391;52.068;4.542;2023-04-03T08:11:04;2.9;;;1.8;;
76548;SDS011;65391;52.068;4.542;2023-04-03T08:13:29;2.3;;;1.4;;
76548;SDS011;65391;52.068;4.542;2023-04-03T08:15:54;2.3;;;1.4;;
76548;SDS011;65391;52.068;4.542;2023-04-03T08:18:19;2.3;;;1.4;;
76548;SDS011;65391;52.068;4.542;2023-04-03T08:20:44;2.3;;;1.4;;
76548;SDS011;65391;52.068;4.542;2023-04-03T08:23:09;2.3;;;1.4;;
76548;SDS011;65391;52.068;4.542;2023-04-03T08:25:37;5;;;1.8;;
76548;SDS011;65391;52.068;4.542;2023-04-03T08:27:59;5;;;1.8;;
76548;SDS011;65391;52.068;4.542;2023-04-03T08:30:24;5;;;1.8;;
76548;SDS011;65391;52.068;4.542;2023-04-03T08:32:49;5;;;1.8;;
76548;SDS011;65391;52.068;4.542;2023-04-03T08:35:14;6;;;1.6;;
76548;SDS011;65391;52.068;4.542;2023-04-03T08:37:39;6;;;1.6;;
76548;SDS011;65391;52.068;4.542;2023-04-03T08:40:04;6;;;1.6;;
76548;SDS011;65391;52.068;4.542;2023-04-03T08:42:36;6;;;1.6;;
76548;SDS011;65391;52.068;4.542;2023-04-03T08:44:55;7.3;;;2.2;;
76548;SDS011;65391;52.068;4.542;2023-04-03T08:47:22;7.3;;;2.2;;
76548;SDS011;65391;52.068;4.542;2023-04-03T08:49:45;7.3;;;2.2;;
76548;SDS011;65391;52.068;4.542;2023-04-03T08:52:10;7.3;;;2.2;;
76548;SDS011;65391;52.068;4.542;2023-04-03T08:54:35;4.2;;;1.9;;
76548;SDS011;65391;52.068;4.542;2023-04-03T08:56:59;4.2;;;1.9;;
76548;SDS011;65391;52.068;4.542;2023-04-03T08:59:26;4.2;;;1.9;;
76548;SDS011;65391;52.068;4.542;2023-04-03T09:01:49;4.2;;;1.9;;
76548;SDS011;65391;52.068;4.542;2023-04-03T09:04:14;5.8;;;2;;
76548;SDS011;65391;52.068;4.542;2023-04-03T09:06:39;5.8;;;2;;
76548;SDS011;65391;52.068;4.542;2023-04-03T09:09:10;5.8;;;2;;
76548;SDS011;65391;52.068;4.542;2023-04-03T09:11:36;5.8;;;2;;
76548;SDS011;65391;52.068;4.542;2023-04-03T09:13:54;5;;;1.6;;
76548;SDS011;65391;52.068;4.542;2023-04-03T09:16:23;5;;;1.6;;
76548;SDS011;65391;52.068;4.542;2023-04-03T09:18:45;5;;;1.6;;
76548;SDS011;65391;52.068;4.542;2023-04-03T09:21:13;5;;;1.6;;
76548;SDS011;65391;52.068;4.542;2023-04-03T09:23:38;3.4;;;1.1;;
76548;SDS011;65391;52.068;4.542;2023-04-03T09:26:01;3.4;;;1.1;;
76548;SDS011;65391;52.068;4.542;2023-04-03T09:28:24;3.4;;;1.1;;
76548;SDS011;65391;52.068;4.542;2023-04-03T09:30:49;3.4;;;1.1;;
76548;SDS011;65391;52.068;4.542;2023-04-03T09:33:14;3.4;;;1.1;;
76548;SDS011;65391;52.068;4.542;2023-04-03T09:35:39;4.5;;;1.1;;
76548;SDS011;65391;52.068;4.542;2023-04-03T09:38:15;4.5;;;1.1;;
76548;SDS011;65391;52.068;4.542;2023-04-03T09:40:32;4.5;;;1.1;;
76548;SDS011;65391;52.068;4.542;2023-04-03T09:42:55;4.5;;;1.1;;
76548;SDS011;65391;52.068;4.542;2023-04-03T09:45:22;2.3;;;0.5;;
76548;SDS011;65391;52.068;4.542;2023-04-03T09:47:44;2.3;;;0.5;;
76548;SDS011;65391;52.068;4.542;2023-04-03T09:50:19;2.3;;;0.5;;
76548;SDS011;65391;52.068;4.542;2023-04-03T09:52:34;2.3;;;0.5;;
76548;SDS011;65391;52.068;4.542;2023-04-03T09:55:05;1.1;;;0.6;;
76548;SDS011;65391;52.068;4.542;2023-04-03T09:57:24;1.1;;;0.6;;
76548;SDS011;65391;52.068;4.542;2023-04-03T09:59:56;1.1;;;0.6;;
76548;SDS011;65391;52.068;4.542;2023-04-03T10:02:28;1.1;;;0.6;;
76548;SDS011;65391;52.068;4.542;2023-04-03T10:04:39;1.2;;;0.5;;
76548;SDS011;65391;52.068;4.542;2023-04-03T10:07:04;1.2;;;0.5;;
76548;SDS011;65391;52.068;4.542;2023-04-03T10:09:30;1.2;;;0.5;;
76548;SDS011;65391;52.068;4.542;2023-04-03T10:11:59;1.2;;;0.5;;
76548;SDS011;65391;52.068;4.542;2023-04-03T10:14:19;2.7;;;0.7;;
76548;SDS011;65391;52.068;4.542;2023-04-03T10:16:46;2.7;;;0.7;;
76548;SDS011;65391;52.068;4.542;2023-04-03T10:19:32;2.7;;;0.7;;
76548;SDS011;65391;52.068;4.542;2023-04-03T10:21:37;2.7;;;0.7;;
76548;SDS011;65391;52.068;4.542;2023-04-03T10:24:03;3.6;;;1;;
76548;SDS011;65391;52.068;4.542;2023-04-03T10:26:29;3.6;;;1;;
76548;SDS011;65391;52.068;4.542;2023-04-03T10:28:52;3.6;;;1;;
76548;SDS011;65391;52.068;4.542;2023-04-03T10:31:15;3.6;;;1;;
76548;SDS011;65391;52.068;4.542;2023-04-03T10:33:45;2.2;;;1;;
76548;SDS011;65391;52.068;4.542;2023-04-03T10:36:10;2.2;;;1;;
76548;SDS011;65391;52.068;4.542;2023-04-03T10:38:33;2.2;;;1;;
76548;SDS011;65391;52.068;4.542;2023-04-03T10:40:57;2.2;;;1;;
76548;SDS011;65391;52.068;4.542;2023-04-03T10:43:22;2.2;;;1;;
76548;SDS011;65391;52.068;4.542;2023-04-03T10:45:50;5.7;;;0.7;;
76548;SDS011;65391;52.068;4.542;2023-04-03T10:48:11;5.7;;;0.7;;
76548;SDS011;65391;52.068;4.542;2023-04-03T10:50:39;5.7;;;0.7;;
76548;SDS011;65391;52.068;4.542;2023-04-03T10:53:02;5.7;;;0.7;;
76548;SDS011;65391;52.068;4.542;2023-04-03T10:55:29;1.5;;;0.5;;
76548;SDS011;65391;52.068;4.542;2023-04-03T10:57:49;1.5;;;0.5;;
76548;SDS011;65391;52.068;4.542;2023-04-03T11:00:15;1.5;;;0.5;;
76548;SDS011;65391;52.068;4.542;2023-04-03T11:02:40;1.5;;;0.5;;
76548;SDS011;65391;52.068;4.542;2023-04-03T11:05:04;1.4;;;0.9;;
76548;SDS011;65391;52.068;4.542;2023-04-03T11:07:32;1.4;;;0.9;;
76548;SDS011;65391;52.068;4.542;2023-04-03T11:09:56;1.4;;;0.9;;
76548;SDS011;65391;52.068;4.542;2023-04-03T11:12:23;1.4;;;0.9;;
76548;SDS011;65391;52.068;4.542;2023-04-03T11:14:44;3.3;;;0.8;;
76548;SDS011;65391;52.068;4.542;2023-04-03T11:17:14;3.3;;;0.8;;
76548;SDS011;65391;52.068;4.542;2023-04-03T11:19:35;3.3;;;0.8;;
76548;SDS011;65391;52.068;4.542;2023-04-03T11:22:03;3.3;;;0.8;;
76548;SDS011;65391;52.068;4.542;2023-04-03T11:24:25;1.2;;;0.4;;
76548;SDS011;65391;52.068;4.542;2023-04-03T11:26:49;1.2;;;0.4;;
76548;SDS011;65391;52.068;4.542;2023-04-03T11:29:15;1.2;;;0.4;;
76548;SDS011;65391;52.068;4.542;2023-04-03T11:31:45;1.2;;;0.4;;
76548;SDS011;65391;52.068;4.542;2023-04-03T11:34:08;1.2;;;0.5;;
76548;SDS011;65391;52.068;4.542;2023-04-03T11:36:29;1.2;;;0.5;;
76548;SDS011;65391;52.068;4.542;2023-04-03T11:38:55;1.2;;;0.5;;
76548;SDS011;65391;52.068;4.542;2023-04-03T11:41:24;1.2;;;0.5;;
76548;SDS011;65391;52.068;4.542;2023-04-03T11:43:55;1.1;;;0.4;;
76548;SDS011;65391;52.068;4.542;2023-04-03T11:46:09;1.1;;;0.4;;
76548;SDS011;65391;52.068;4.542;2023-04-03T11:48:45;1.1;;;0.4;;
76548;SDS011;65391;52.068;4.542;2023-04-03T11:50:59;1.1;;;0.4;;
76548;SDS011;65391;52.068;4.542;2023-04-03T11:53:26;1.1;;;0.4;;
76548;SDS011;65391;52.068;4.542;2023-04-03T11:55:55;2.1;;;0.3;;
76548;SDS011;65391;52.068;4.542;2023-04-03T11:58:15;2.1;;;0.3;;
76548;SDS011;65391;52.068;4.542;2023-04-03T12:00:50;2.1;;;0.3;;
76548;SDS011;65391;52.068;4.542;2023-04-03T12:03:30;2.1;;;0.3;;
76548;SDS011;65391;52.068;4.542;2023-04-03T12:05:29;0.8;;;0.3;;
76548;SDS011;65391;52.068;4.542;2023-04-03T12:08:26;0.8;;;0.3;;
76548;SDS011;65391;52.068;4.542;2023-04-03T12:10:19;0.8;;;0.3;;
76548;SDS011;65391;52.068;4.542;2023-04-03T12:13:00;0.8;;;0.3;;
76548;SDS011;65391;52.068;4.542;2023-04-03T12:15:19;1.3;;;0.7;;
76548;SDS011;65391;52.068;4.542;2023-04-03T12:17:34;1.3;;;0.7;;
76548;SDS011;65391;52.068;4.542;2023-04-03T12:19:59;1.3;;;0.7;;
76548;SDS011;65391;52.068;4.542;2023-04-03T12:22:24;1.3;;;0.7;;
76548;SDS011;65391;52.068;4.542;2023-04-03T12:24:50;0.5;;;0.2;;
76548;SDS011;65391;52.068;4.542;2023-04-03T12:27:22;0.5;;;0.2;;
76548;SDS011;65391;52.068;4.542;2023-04-03T12:29:43;0.5;;;0.2;;
76548;SDS011;65391;52.068;4.542;2023-04-03T12:32:09;0.5;;;0.2;;
76548;SDS011;65391;52.068;4.542;2023-04-03T12:34:53;1.3;;;0.4;;
76548;SDS011;65391;52.068;4.542;2023-04-03T12:36:59;1.3;;;0.4;;
76548;SDS011;65391;52.068;4.542;2023-04-03T12:39:33;1.3;;;0.4;;
76548;SDS011;65391;52.068;4.542;2023-04-03T12:41:48;1.3;;;0.4;;
76548;SDS011;65391;52.068;4.542;2023-04-03T12:44:46;3.1;;;0.5;;
76548;SDS011;65391;52.068;4.542;2023-04-03T12:46:36;3.1;;;0.5;;
76548;SDS011;65391;52.068;4.542;2023-04-03T12:48:59;3.1;;;0.5;;
76548;SDS011;65391;52.068;4.542;2023-04-03T12:51:28;3.1;;;0.5;;
76548;SDS011;65391;52.068;4.542;2023-04-03T12:53:49;0.9;;;0.5;;
76548;SDS011;65391;52.068;4.542;2023-04-03T12:56:19;0.9;;;0.5;;
76548;SDS011;65391;52.068;4.542;2023-04-03T12:58:39;0.9;;;0.5;;
76548;SDS011;65391;52.068;4.542;2023-04-03T13:01:09;0.9;;;0.5;;
76548;SDS011;65391;52.068;4.542;2023-04-03T13:03:29;0.9;;;0.5;;
76548;SDS011;65391;52.068;4.542;2023-04-03T13:05:55;1.1;;;0.6;;
76548;SDS011;65391;52.068;4.542;2023-04-03T13:08:19;1.1;;;0.6;;
76548;SDS011;65391;52.068;4.542;2023-04-03T13:10:49;1.1;;;0.6;;
76548;SDS011;65391;52.068;4.542;2023-04-03T13:13:09;1.1;;;0.6;;
76548;SDS011;65391;52.068;4.542;2023-04-03T13:15:41;1.8;;;0.8;;
76548;SDS011;65391;52.068;4.542;2023-04-03T13:17:59;1.8;;;0.8;;
76548;SDS011;65391;52.068;4.542;2023-04-03T13:20:25;1.8;;;0.8;;
76548;SDS011;65391;52.068;4.542;2023-04-03T13:22:52;1.8;;;0.8;;
76548;SDS011;65391;52.068;4.542;2023-04-03T13:25:14;2.9;;;0.9;;
76548;SDS011;65391;52.068;4.542;2023-04-03T13:27:39;2.9;;;0.9;;
76548;SDS011;65391;52.068;4.542;2023-04-03T13:30:05;2.9;;;0.9;;
76548;SDS011;65391;52.068;4.542;2023-04-03T13:32:29;2.9;;;0.9;;
76548;SDS011;65391;52.068;4.542;2023-04-03T13:34:54;3;;;1.1;;
76548;SDS011;65391;52.068;4.542;2023-04-03T13:37:21;3;;;1.1;;
76548;SDS011;65391;52.068;4.542;2023-04-03T13:39:44;3;;;1.1;;
76548;SDS011;65391;52.068;4.542;2023-04-03T13:42:15;3;;;1.1;;
76548;SDS011;65391;52.068;4.542;2023-04-03T13:44:35;2;;;0.6;;
76548;SDS011;65391;52.068;4.542;2023-04-03T13:47:00;2;;;0.6;;
76548;SDS011;65391;52.068;4.542;2023-04-03T13:49:29;2;;;0.6;;
76548;SDS011;65391;52.068;4.542;2023-04-03T13:51:49;2;;;0.6;;
76548;SDS011;65391;52.068;4.542;2023-04-03T13:54:18;4.3;;;1.6;;
76548;SDS011;65391;52.068;4.542;2023-04-03T13:56:39;4.3;;;1.6;;
76548;SDS011;65391;52.068;4.542;2023-04-03T13:59:18;4.3;;;1.6;;
76548;SDS011;65391;52.068;4.542;2023-04-03T14:01:37;4.3;;;1.6;;
76548;SDS011;65391;52.068;4.542;2023-04-03T14:03:55;2.6;;;0.7;;
76548;SDS011;65391;52.068;4.542;2023-04-03T14:06:19;2.6;;;0.7;;
76548;SDS011;65391;52.068;4.542;2023-04-03T14:08:44;2.6;;;0.7;;
76548;SDS011;65391;52.068;4.542;2023-04-03T14:11:12;2.6;;;0.7;;
76548;SDS011;65391;52.068;4.542;2023-04-03T14:13:34;2.6;;;0.7;;
76548;SDS011;65391;52.068;4.542;2023-04-03T14:15:59;2.3;;;1;;
76548;SDS011;65391;52.068;4.542;2023-04-03T14:18:24;2.3;;;1;;
76548;SDS011;65391;52.068;4.542;2023-04-03T14:20:49;2.3;;;1;;
76548;SDS011;65391;52.068;4.542;2023-04-03T14:23:14;2.3;;;1;;
76548;SDS011;65391;52.068;4.542;2023-04-03T14:25:40;4.4;;;1.1;;
76548;SDS011;65391;52.068;4.542;2023-04-03T14:28:14;4.4;;;1.1;;
76548;SDS011;65391;52.068;4.542;2023-04-03T14:30:32;4.4;;;1.1;;
76548;SDS011;65391;52.068;4.542;2023-04-03T14:32:54;4.4;;;1.1;;
76548;SDS011;65391;52.068;4.542;2023-04-03T14:35:19;5.5;;;1.5;;
76548;SDS011;65391;52.068;4.542;2023-04-03T14:37:44;5.5;;;1.5;;
76548;SDS011;65391;52.068;4.542;2023-04-03T14:40:12;5.5;;;1.5;;
76548;SDS011;65391;52.068;4.542;2023-04-03T14:42:36;5.5;;;1.5;;
76548;SDS011;65391;52.068;4.542;2023-04-03T14:44:59;1.8;;;0.8;;
76548;SDS011;65391;52.068;4.542;2023-04-03T14:47:25;1.8;;;0.8;;
76548;SDS011;65391;52.068;4.542;2023-04-03T14:49:49;1.8;;;0.8;;
76548;SDS011;65391;52.068;4.542;2023-04-03T14:52:18;1.8;;;0.8;;
76548;SDS011;65391;52.068;4.542;2023-04-03T14:54:39;1.8;;;0.7;;
76548;SDS011;65391;52.068;4.542;2023-04-03T14:57:04;1.8;;;0.7;;
76548;SDS011;65391;52.068;4.542;2023-04-03T14:59:29;1.8;;;0.7;;
76548;SDS011;65391;52.068;4.542;2023-04-03T15:01:54;1.8;;;0.7;;
76548;SDS011;65391;52.068;4.542;2023-04-03T15:04:20;1.6;;;0.7;;
76548;SDS011;65391;52.068;4.542;2023-04-03T15:06:45;1.6;;;0.7;;